Aviation Digital Data Service (ADDS)

Output produced by TAFs form (0028 UTC 11 December 2017)
found at http://www.aviationweather.gov/adds/tafs/
 
KBJC 102350Z 31003KT 50SM SKC 13/M19 A3035
KBJC 102343Z 1100/1124 25007KT P6SM SCT220 
     FM112000 14007KT P6SM FEW120